Jensen Beach, Florida
Current Conditions -  °F | °C
As of 6:47 PM on Saturday 25 Oct 2014 (Local Time) from KSUA Reporting Station
Scattered Clouds Scattered Clouds  
Wind Chill: 73°   Ceiling: Unl
Heat Index: 73°   Visibility: 7mi
Dew Point: 63°   Wind: 9mph
Humidity: 69%   Direction: 350°N
Pressure: 29.93"   Gusts: 17mph
Location:  27.26°N, 80.23°W
Report Text: KSUA 252247Z 35008G15KT 7SM SCT025 23/17 A2993
Loading
Personal Weather Stations






























Interactive Weather Map
Tropical Storm Tracking
New forecast layout! Learn more

10-Day Weather Forecast

Advertisements
Track Severe Weather on mobile